Phillips, ME

11:03 PM EDT on October 25, 2014 (GMT -0400)
Center Hill Road | Change Station
CLOSE
Current Station
Personal Weather Station
Location: Weld, ME
Elevation: 1038 ft
Nearby Weather Stations

Elev 1038 ft 44.71 °N, 70.41 °W | Updated 16 seconds ago

Rain
Rain
46.2 °F
Feels Like 46 °F
N
0.0
Wind Variable Wind from WNW
Gusts 2.0 mph

Today
High -- | Low -- °F
--% Chance of Precip.
Yesterday
High -- | Low -- °F
Precip. -- in
7:10 AM 5:40 PM
Waxing Crescent, 5% visible
Pressure 29.43 in
Visibility 10.0 miles
Clouds Overcast 8000 ft
Windchill 46 °F
Dew Point 45 °F
Humidity 96%
Rainfall 0.07 in
Snow Depth Not available.
UV 0 out of 12
Pollen .10 out of 12
Air Quality Not available.
Flu Activity Not available.
METAR KWVL 260255Z 23005KT 10SM OVC080 09/04 A2943 RMK AO1 57020

More Conditions Fewer Conditions

Pressure 29.43 in
Visibility 10.0 miles
Clouds Overcast 8000 ft
Windchill 46 °F
Dew Point 45 °F
Humidity 96%
Rainfall 0.07 in
Snow Depth Not available.
UV 0 out of 12
Pollen .10 out of 12
Air Quality Not available.
Flu Activity Not available.
METAR KWVL 260255Z 23005KT 10SM OVC080 09/04 A2943 RMK AO1 57020

More Conditions Fewer Conditions

10-Day Weather Forecast

Almanac

Astronomy

Oct. 25, 2014 Rise Set
Actual Time 7:10 AM EDT 5:40 PM EDT
Civil Twilight 6:40 AM EDT 6:10 PM EDT
Nautical Twilight 6:05 AM EDT 6:44 PM EDT
Astronomical Twilight 5:31 AM EDT 7:18 PM EDT
Moon 8:48 AM EDT (10/25) 6:57 PM EDT (10/25)
Length of Visible Light 11h 30m
Length of Day
10h 30m
Tomorrow will be 2m 53s shorter.
Waxing Crescent, 5% of the Moon is Illuminated
Today
Waxing Crescent
Oct 30
First Quarter
Nov 6
Full
Nov 14
Last Quarter
Nov 22
New

Today's Extremes

State Highs State Lows

Community

WunderPhotos

Upload Photos

1,765,091 photos uploaded!

Nearby

Snow Depth

Station Depth Elevation
No new snow has been reported.

Earthquake Activity

City Distance Mag. Time & Date
No recent earthquake activity has been reported nearby.
Minimum magnitude displayed is 2.5.

Coastal Water Temperatures

Place Temperature
No Stations Reporting

Nearby Weather Stations